<?xml version="1.0" encoding="UTF-8" standalone="no" ?>
<gpx xmlns="http://www.topografix.com/GPX/1/1" xmlns:xsi="http://www.w3.org/2001/XMLSchema-instance" xsi:schemaLocation="http://www.topografix.com/GPX/1/1 http://www.topografix.com/GPX/1/1/gpx.xsd" version="1.1" creator="VisuGPX - https://www.visugpx.com">
  <metadata>
    <name>Forêt d'Olonne_V1</name>
    <desc><![CDATA[Gr 8 partiel]]></desc>
  </metadata>
  <trk>
    <name><![CDATA[Forêt d'Olonne]]></name>
    <desc><![CDATA[Gr 8 partiel]]></desc>
    <extensions>
      <line xmlns="http://www.topografix.com/GPX/gpx_style/0/2">
        <color>0000FF</color>
        <width>4</width>
      </line>
    </extensions>
    <trkseg>
      <trkpt lat="46.52426" lon="-1.81019">
        <ele>4.6</ele>
        <time>2021-11-29T20:41:07.000Z</time>
      </trkpt>
      <trkpt lat="46.52426" lon="-1.81019">
        <ele>4.6</ele>
        <time>2021-11-29T20:41:07.000Z</time>
      </trkpt>
      <trkpt lat="46.52451" lon="-1.81137">
        <ele>6.2</ele>
        <time>2021-11-29T20:41:23.884Z</time>
      </trkpt>
      <trkpt lat="46.52488" lon="-1.81197">
        <ele>7.1</ele>
        <time>2021-11-29T20:41:34.589Z</time>
      </trkpt>
      <trkpt lat="46.52516" lon="-1.81255">
        <ele>9.1</ele>
        <time>2021-11-29T20:41:47.423Z</time>
      </trkpt>
      <trkpt lat="46.52553" lon="-1.81324">
        <ele>8.3</ele>
        <time>2021-11-29T20:41:55.229Z</time>
      </trkpt>
      <trkpt lat="46.52578" lon="-1.81352">
        <ele>8</ele>
        <time>2021-11-29T20:41:59.554Z</time>
      </trkpt>
      <trkpt lat="46.52591" lon="-1.81377">
        <ele>8</ele>
        <time>2021-11-29T20:42:03.192Z</time>
      </trkpt>
      <trkpt lat="46.52603" lon="-1.81403">
        <ele>8.8</ele>
        <time>2021-11-29T20:42:08.532Z</time>
      </trkpt>
      <trkpt lat="46.52646" lon="-1.8142">
        <ele>7.3</ele>
        <time>2021-11-29T20:42:13.131Z</time>
      </trkpt>
      <trkpt lat="46.52668" lon="-1.81448">
        <ele>5.4</ele>
        <time>2021-11-29T20:42:15.432Z</time>
      </trkpt>
      <trkpt lat="46.52698" lon="-1.81478">
        <ele>7.3</ele>
        <time>2021-11-29T20:42:25.982Z</time>
      </trkpt>
      <trkpt lat="46.52726" lon="-1.81508">
        <ele>8.2</ele>
        <time>2021-11-29T20:42:33.489Z</time>
      </trkpt>
      <trkpt lat="46.52752" lon="-1.8153">
        <ele>7.1</ele>
        <time>2021-11-29T20:42:36.548Z</time>
      </trkpt>
      <trkpt lat="46.52816" lon="-1.81618">
        <ele>7.2</ele>
        <time>2021-11-29T20:42:51.118Z</time>
      </trkpt>
      <trkpt lat="46.52851" lon="-1.81686">
        <ele>8.4</ele>
        <time>2021-11-29T20:43:02.943Z</time>
      </trkpt>
      <trkpt lat="46.52868" lon="-1.81734">
        <ele>8.3</ele>
        <time>2021-11-29T20:43:08.856Z</time>
      </trkpt>
      <trkpt lat="46.52886" lon="-1.81775">
        <ele>7.3</ele>
        <time>2021-11-29T20:43:12.425Z</time>
      </trkpt>
      <trkpt lat="46.52903" lon="-1.81802">
        <ele>7.4</ele>
        <time>2021-11-29T20:43:16.780Z</time>
      </trkpt>
      <trkpt lat="46.5292" lon="-1.81817">
        <ele>6.6</ele>
        <time>2021-11-29T20:43:18.682Z</time>
      </trkpt>
      <trkpt lat="46.52935" lon="-1.8181">
        <ele>6.8</ele>
        <time>2021-11-29T20:43:21.709Z</time>
      </trkpt>
      <trkpt lat="46.52943" lon="-1.818">
        <ele>7</ele>
        <time>2021-11-29T20:43:23.777Z</time>
      </trkpt>
      <trkpt lat="46.52964" lon="-1.818">
        <ele>6.6</ele>
        <time>2021-11-29T20:43:26.252Z</time>
      </trkpt>
      <trkpt lat="46.5299" lon="-1.81804">
        <ele>6.1</ele>
        <time>2021-11-29T20:43:29.468Z</time>
      </trkpt>
      <trkpt lat="46.53033" lon="-1.81812">
        <ele>6.2</ele>
        <time>2021-11-29T20:43:36.705Z</time>
      </trkpt>
      <trkpt lat="46.5304" lon="-1.81768">
        <ele>6.7</ele>
        <time>2021-11-29T20:43:42.679Z</time>
      </trkpt>
      <trkpt lat="46.5305" lon="-1.81721">
        <ele>8.4</ele>
        <time>2021-11-29T20:43:52.427Z</time>
      </trkpt>
      <trkpt lat="46.53052" lon="-1.81687">
        <ele>7.8</ele>
        <time>2021-11-29T20:43:55.072Z</time>
      </trkpt>
      <trkpt lat="46.53052" lon="-1.81635">
        <ele>7.8</ele>
        <time>2021-11-29T20:44:00.999Z</time>
      </trkpt>
      <trkpt lat="46.53049" lon="-1.81571">
        <ele>6.3</ele>
        <time>2021-11-29T20:44:05.519Z</time>
      </trkpt>
      <trkpt lat="46.53049" lon="-1.8151">
        <ele>7.4</ele>
        <time>2021-11-29T20:44:14.579Z</time>
      </trkpt>
      <trkpt lat="46.53048" lon="-1.81486">
        <ele>7.2</ele>
        <time>2021-11-29T20:44:16.777Z</time>
      </trkpt>
      <trkpt lat="46.53042" lon="-1.81456">
        <ele>6.8</ele>
        <time>2021-11-29T20:44:19.405Z</time>
      </trkpt>
      <trkpt lat="46.53038" lon="-1.81436">
        <ele>6.8</ele>
        <time>2021-11-29T20:44:21.746Z</time>
      </trkpt>
      <trkpt lat="46.53047" lon="-1.81381">
        <ele>6.2</ele>
        <time>2021-11-29T20:44:26.723Z</time>
      </trkpt>
      <trkpt lat="46.53056" lon="-1.8133">
        <ele>6.1</ele>
        <time>2021-11-29T20:44:32.418Z</time>
      </trkpt>
      <trkpt lat="46.53065" lon="-1.81268">
        <ele>7.6</ele>
        <time>2021-11-29T20:44:42.903Z</time>
      </trkpt>
      <trkpt lat="46.53071" lon="-1.81203">
        <ele>4.8</ele>
        <time>2021-11-29T20:44:46.535Z</time>
      </trkpt>
      <trkpt lat="46.5314" lon="-1.81204">
        <ele>6</ele>
        <time>2021-11-29T20:45:00.125Z</time>
      </trkpt>
      <trkpt lat="46.53177" lon="-1.81208">
        <ele>5.6</ele>
        <time>2021-11-29T20:45:05.104Z</time>
      </trkpt>
      <trkpt lat="46.53229" lon="-1.81232">
        <ele>5.5</ele>
        <time>2021-11-29T20:45:13.769Z</time>
      </trkpt>
      <trkpt lat="46.53278" lon="-1.81249">
        <ele>5.9</ele>
        <time>2021-11-29T20:45:22.659Z</time>
      </trkpt>
      <trkpt lat="46.53319" lon="-1.81253">
        <ele>4.7</ele>
        <time>2021-11-29T20:45:27.154Z</time>
      </trkpt>
      <trkpt lat="46.53362" lon="-1.81255">
        <ele>5.7</ele>
        <time>2021-11-29T20:45:36.111Z</time>
      </trkpt>
      <trkpt lat="46.53408" lon="-1.81311">
        <ele>6</ele>
        <time>2021-11-29T20:45:46.410Z</time>
      </trkpt>
      <trkpt lat="46.53431" lon="-1.81328">
        <ele>5.8</ele>
        <time>2021-11-29T20:45:50.119Z</time>
      </trkpt>
      <trkpt lat="46.53474" lon="-1.81322">
        <ele>5.3</ele>
        <time>2021-11-29T20:45:55.846Z</time>
      </trkpt>
      <trkpt lat="46.53524" lon="-1.81287">
        <ele>5.9</ele>
        <time>2021-11-29T20:46:05.969Z</time>
      </trkpt>
      <trkpt lat="46.53571" lon="-1.81266">
        <ele>5.9</ele>
        <time>2021-11-29T20:46:14.101Z</time>
      </trkpt>
      <trkpt lat="46.53626" lon="-1.81262">
        <ele>5.9</ele>
        <time>2021-11-29T20:46:23.092Z</time>
      </trkpt>
      <trkpt lat="46.53694" lon="-1.81281">
        <ele>4.4</ele>
        <time>2021-11-29T20:46:31.236Z</time>
      </trkpt>
      <trkpt lat="46.53743" lon="-1.81287">
        <ele>4.7</ele>
        <time>2021-11-29T20:46:39.770Z</time>
      </trkpt>
      <trkpt lat="46.53808" lon="-1.81264">
        <ele>5.1</ele>
        <time>2021-11-29T20:46:51.407Z</time>
      </trkpt>
      <trkpt lat="46.5385" lon="-1.81227">
        <ele>6.3</ele>
        <time>2021-11-29T20:47:01.887Z</time>
      </trkpt>
      <trkpt lat="46.53898" lon="-1.81214">
        <ele>6.4</ele>
        <time>2021-11-29T20:47:09.937Z</time>
      </trkpt>
      <trkpt lat="46.53957" lon="-1.81227">
        <ele>7.1</ele>
        <time>2021-11-29T20:47:20.944Z</time>
      </trkpt>
      <trkpt lat="46.54025" lon="-1.81259">
        <ele>5.7</ele>
        <time>2021-11-29T20:47:29.555Z</time>
      </trkpt>
      <trkpt lat="46.54067" lon="-1.81272">
        <ele>5.3</ele>
        <time>2021-11-29T20:47:35.565Z</time>
      </trkpt>
      <trkpt lat="46.54137" lon="-1.81259">
        <ele>5.9</ele>
        <time>2021-11-29T20:47:48.033Z</time>
      </trkpt>
      <trkpt lat="46.54178" lon="-1.81242">
        <ele>5.4</ele>
        <time>2021-11-29T20:47:53.764Z</time>
      </trkpt>
      <trkpt lat="46.54225" lon="-1.81225">
        <ele>5.5</ele>
        <time>2021-11-29T20:48:01.915Z</time>
      </trkpt>
      <trkpt lat="46.54261" lon="-1.81232">
        <ele>5.8</ele>
        <time>2021-11-29T20:48:08.270Z</time>
      </trkpt>
      <trkpt lat="46.54286" lon="-1.81238">
        <ele>4.6</ele>
        <time>2021-11-29T20:48:10.591Z</time>
      </trkpt>
      <trkpt lat="46.54323" lon="-1.81219">
        <ele>8.9</ele>
        <time>2021-11-29T20:48:29.098Z</time>
      </trkpt>
      <trkpt lat="46.54346" lon="-1.81167">
        <ele>5.9</ele>
        <time>2021-11-29T20:48:32.702Z</time>
      </trkpt>
      <trkpt lat="46.54363" lon="-1.81116">
        <ele>4.6</ele>
        <time>2021-11-29T20:48:36.748Z</time>
      </trkpt>
      <trkpt lat="46.54408" lon="-1.81036">
        <ele>4</ele>
        <time>2021-11-29T20:48:46.635Z</time>
      </trkpt>
      <trkpt lat="46.54491" lon="-1.81418">
        <ele>8.6</ele>
        <time>2021-11-29T20:49:40.102Z</time>
      </trkpt>
      <trkpt lat="46.54522" lon="-1.81654">
        <ele>7.5</ele>
        <time>2021-11-29T20:50:04.755Z</time>
      </trkpt>
      <trkpt lat="46.5455" lon="-1.81802">
        <ele>7.1</ele>
        <time>2021-11-29T20:50:21.175Z</time>
      </trkpt>
      <trkpt lat="46.54584" lon="-1.82008">
        <ele>7</ele>
        <time>2021-11-29T20:50:44.879Z</time>
      </trkpt>
      <trkpt lat="46.54583" lon="-1.82154">
        <ele>8</ele>
        <time>2021-11-29T20:51:03.036Z</time>
      </trkpt>
      <trkpt lat="46.54583" lon="-1.82214">
        <ele>8</ele>
        <time>2021-11-29T20:51:09.832Z</time>
      </trkpt>
      <trkpt lat="46.54624" lon="-1.82324">
        <ele>9.9</ele>
        <time>2021-11-29T20:51:27.534Z</time>
      </trkpt>
      <trkpt lat="46.54698" lon="-1.82547">
        <ele>10.8</ele>
        <time>2021-11-29T20:51:56.963Z</time>
      </trkpt>
      <trkpt lat="46.54751" lon="-1.82609">
        <ele>9.8</ele>
        <time>2021-11-29T20:52:05.692Z</time>
      </trkpt>
      <trkpt lat="46.54791" lon="-1.82648">
        <ele>10.3</ele>
        <time>2021-11-29T20:52:14.391Z</time>
      </trkpt>
      <trkpt lat="46.54823" lon="-1.82905">
        <ele>10.7</ele>
        <time>2021-11-29T20:52:44.609Z</time>
      </trkpt>
      <trkpt lat="46.5483" lon="-1.82974">
        <ele>11.3</ele>
        <time>2021-11-29T20:52:53.493Z</time>
      </trkpt>
      <trkpt lat="46.54912" lon="-1.83049">
        <ele>11.1</ele>
        <time>2021-11-29T20:53:08.814Z</time>
      </trkpt>
      <trkpt lat="46.54948" lon="-1.83079">
        <ele>11.9</ele>
        <time>2021-11-29T20:53:17.222Z</time>
      </trkpt>
      <trkpt lat="46.55" lon="-1.83152">
        <ele>11.9</ele>
        <time>2021-11-29T20:53:29.071Z</time>
      </trkpt>
      <trkpt lat="46.55031" lon="-1.8318">
        <ele>12</ele>
        <time>2021-11-29T20:53:35.220Z</time>
      </trkpt>
      <trkpt lat="46.55053" lon="-1.83176">
        <ele>12.3</ele>
        <time>2021-11-29T20:53:39.401Z</time>
      </trkpt>
      <trkpt lat="46.55081" lon="-1.83193">
        <ele>12</ele>
        <time>2021-11-29T20:53:43.551Z</time>
      </trkpt>
      <trkpt lat="46.55108" lon="-1.83238">
        <ele>11.7</ele>
        <time>2021-11-29T20:53:49.299Z</time>
      </trkpt>
      <trkpt lat="46.55134" lon="-1.83264">
        <ele>10.5</ele>
        <time>2021-11-29T20:53:52.476Z</time>
      </trkpt>
      <trkpt lat="46.55161" lon="-1.83274">
        <ele>11.7</ele>
        <time>2021-11-29T20:54:00.010Z</time>
      </trkpt>
      <trkpt lat="46.55196" lon="-1.83225">
        <ele>10.1</ele>
        <time>2021-11-29T20:54:05.149Z</time>
      </trkpt>
      <trkpt lat="46.55207" lon="-1.83201">
        <ele>9.5</ele>
        <time>2021-11-29T20:54:07.188Z</time>
      </trkpt>
      <trkpt lat="46.55208" lon="-1.83147">
        <ele>9.3</ele>
        <time>2021-11-29T20:54:12.925Z</time>
      </trkpt>
      <trkpt lat="46.55207" lon="-1.83141">
        <ele>9.6</ele>
        <time>2021-11-29T20:54:14.309Z</time>
      </trkpt>
      <trkpt lat="46.55204" lon="-1.8309">
        <ele>10.2</ele>
        <time>2021-11-29T20:54:36.366Z</time>
      </trkpt>
      <trkpt lat="46.55211" lon="-1.8313">
        <ele>9.3</ele>
        <time>2021-11-29T20:54:53.952Z</time>
      </trkpt>
      <trkpt lat="46.55202" lon="-1.83005">
        <ele>9.1</ele>
        <time>2021-11-29T20:55:07.694Z</time>
      </trkpt>
      <trkpt lat="46.55205" lon="-1.82831">
        <ele>8.3</ele>
        <time>2021-11-29T20:55:25.519Z</time>
      </trkpt>
      <trkpt lat="46.55205" lon="-1.8273">
        <ele>8.4</ele>
        <time>2021-11-29T20:55:37.077Z</time>
      </trkpt>
      <trkpt lat="46.55196" lon="-1.82642">
        <ele>7.1</ele>
        <time>2021-11-29T20:55:44.293Z</time>
      </trkpt>
      <trkpt lat="46.55199" lon="-1.82545">
        <ele>7.5</ele>
        <time>2021-11-29T20:55:55.921Z</time>
      </trkpt>
      <trkpt lat="46.55208" lon="-1.82452">
        <ele>7.4</ele>
        <time>2021-11-29T20:56:37.052Z</time>
      </trkpt>
      <trkpt lat="46.55234" lon="-1.8242">
        <ele>7.5</ele>
        <time>2021-11-29T20:56:58.437Z</time>
      </trkpt>
      <trkpt lat="46.55248" lon="-1.82334">
        <ele>7.5</ele>
        <time>2021-11-29T20:57:36.968Z</time>
      </trkpt>
      <trkpt lat="46.55257" lon="-1.82259">
        <ele>7.2</ele>
        <time>2021-11-29T20:58:10.050Z</time>
      </trkpt>
      <trkpt lat="46.55307" lon="-1.82147">
        <ele>6</ele>
        <time>2021-11-29T20:59:08.349Z</time>
      </trkpt>
      <trkpt lat="46.55331" lon="-1.82198">
        <ele>6.8</ele>
        <time>2021-11-29T20:59:16.779Z</time>
      </trkpt>
      <trkpt lat="46.55394" lon="-1.82222">
        <ele>7.8</ele>
        <time>2021-11-29T20:59:29.238Z</time>
      </trkpt>
      <trkpt lat="46.55441" lon="-1.82252">
        <ele>7.7</ele>
        <time>2021-11-29T20:59:37.314Z</time>
      </trkpt>
      <trkpt lat="46.55497" lon="-1.82248">
        <ele>9.6</ele>
        <time>2021-11-29T21:00:13.195Z</time>
      </trkpt>
      <trkpt lat="46.55561" lon="-1.82254">
        <ele>6.3</ele>
        <time>2021-11-29T21:00:54.000Z</time>
      </trkpt>
      <trkpt lat="46.55623" lon="-1.82282">
        <ele>7.3</ele>
        <time>2021-11-29T21:01:34.967Z</time>
      </trkpt>
      <trkpt lat="46.55692" lon="-1.82394">
        <ele>6.2</ele>
        <time>2021-11-29T21:01:48.950Z</time>
      </trkpt>
      <trkpt lat="46.55758" lon="-1.82429">
        <ele>8.4</ele>
        <time>2021-11-29T21:02:05.099Z</time>
      </trkpt>
      <trkpt lat="46.55792" lon="-1.82495">
        <ele>6.9</ele>
        <time>2021-11-29T21:02:41.107Z</time>
      </trkpt>
      <trkpt lat="46.55821" lon="-1.82552">
        <ele>6.9</ele>
        <time>2021-11-29T21:03:12.072Z</time>
      </trkpt>
      <trkpt lat="46.55902" lon="-1.82592">
        <ele>7.3</ele>
        <time>2021-11-29T21:04:06.249Z</time>
      </trkpt>
      <trkpt lat="46.55952" lon="-1.82601">
        <ele>6.3</ele>
        <time>2021-11-29T21:04:12.316Z</time>
      </trkpt>
      <trkpt lat="46.55993" lon="-1.82577">
        <ele>6.2</ele>
        <time>2021-11-29T21:04:19.368Z</time>
      </trkpt>
      <trkpt lat="46.56083" lon="-1.82508">
        <ele>6</ele>
        <time>2021-11-29T21:04:35.591Z</time>
      </trkpt>
      <trkpt lat="46.56105" lon="-1.8244">
        <ele>7</ele>
        <time>2021-11-29T21:04:45.989Z</time>
      </trkpt>
      <trkpt lat="46.56127" lon="-1.82397">
        <ele>6.6</ele>
        <time>2021-11-29T21:04:50.944Z</time>
      </trkpt>
      <trkpt lat="46.56155" lon="-1.82369">
        <ele>6.6</ele>
        <time>2021-11-29T21:04:56.524Z</time>
      </trkpt>
      <trkpt lat="46.56175" lon="-1.82343">
        <ele>7.1</ele>
        <time>2021-11-29T21:05:01.735Z</time>
      </trkpt>
      <trkpt lat="46.56191" lon="-1.82296">
        <ele>6.9</ele>
        <time>2021-11-29T21:05:07.234Z</time>
      </trkpt>
      <trkpt lat="46.56206" lon="-1.82236">
        <ele>8.8</ele>
        <time>2021-11-29T21:05:19.193Z</time>
      </trkpt>
      <trkpt lat="46.56229" lon="-1.82186">
        <ele>10.6</ele>
        <time>2021-11-29T21:05:30.495Z</time>
      </trkpt>
      <trkpt lat="46.56253" lon="-1.82137">
        <ele>13.1</ele>
        <time>2021-11-29T21:05:43.260Z</time>
      </trkpt>
      <trkpt lat="46.56271" lon="-1.82148">
        <ele>8.1</ele>
        <time>2021-11-29T21:05:44.882Z</time>
      </trkpt>
      <trkpt lat="46.56294" lon="-1.82128">
        <ele>6</ele>
        <time>2021-11-29T21:05:47.175Z</time>
      </trkpt>
      <trkpt lat="46.56319" lon="-1.82092">
        <ele>7.5</ele>
        <time>2021-11-29T21:05:56.691Z</time>
      </trkpt>
      <trkpt lat="46.56355" lon="-1.8212">
        <ele>8.3</ele>
        <time>2021-11-29T21:06:04.779Z</time>
      </trkpt>
      <trkpt lat="46.56449" lon="-1.82225">
        <ele>7.2</ele>
        <time>2021-11-29T21:06:21.109Z</time>
      </trkpt>
      <trkpt lat="46.56471" lon="-1.82279">
        <ele>7.3</ele>
        <time>2021-11-29T21:06:28.337Z</time>
      </trkpt>
      <trkpt lat="46.56476" lon="-1.82345">
        <ele>7.9</ele>
        <time>2021-11-29T21:06:36.926Z</time>
      </trkpt>
      <trkpt lat="46.56474" lon="-1.82418">
        <ele>7.9</ele>
        <time>2021-11-29T21:06:45.171Z</time>
      </trkpt>
      <trkpt lat="46.56468" lon="-1.82476">
        <ele>8.2</ele>
        <time>2021-11-29T21:06:52.272Z</time>
      </trkpt>
      <trkpt lat="46.56487" lon="-1.82558">
        <ele>8.1</ele>
        <time>2021-11-29T21:07:01.776Z</time>
      </trkpt>
      <trkpt lat="46.56496" lon="-1.82598">
        <ele>8.1</ele>
        <time>2021-11-29T21:07:06.610Z</time>
      </trkpt>
      <trkpt lat="46.56493" lon="-1.82691">
        <ele>9.6</ele>
        <time>2021-11-29T21:07:19.927Z</time>
      </trkpt>
      <trkpt lat="46.56496" lon="-1.82751">
        <ele>13.6</ele>
        <time>2021-11-29T21:07:37.064Z</time>
      </trkpt>
      <trkpt lat="46.56513" lon="-1.82798">
        <ele>15.3</ele>
        <time>2021-11-29T21:07:47.291Z</time>
      </trkpt>
      <trkpt lat="46.56536" lon="-1.82824">
        <ele>11.4</ele>
        <time>2021-11-29T21:07:49.790Z</time>
      </trkpt>
      <trkpt lat="46.56561" lon="-1.82869">
        <ele>9.3</ele>
        <time>2021-11-29T21:07:53.238Z</time>
      </trkpt>
      <trkpt lat="46.56577" lon="-1.82907">
        <ele>9.2</ele>
        <time>2021-11-29T21:07:58.118Z</time>
      </trkpt>
      <trkpt lat="46.56585" lon="-1.82952">
        <ele>9.3</ele>
        <time>2021-11-29T21:08:03.511Z</time>
      </trkpt>
      <trkpt lat="46.56586" lon="-1.82993">
        <ele>10.2</ele>
        <time>2021-11-29T21:08:10.048Z</time>
      </trkpt>
      <trkpt lat="46.56605" lon="-1.83028">
        <ele>10</ele>
        <time>2021-11-29T21:08:14.590Z</time>
      </trkpt>
      <trkpt lat="46.56635" lon="-1.83047">
        <ele>9</ele>
        <time>2021-11-29T21:08:18.031Z</time>
      </trkpt>
      <trkpt lat="46.56645" lon="-1.83036">
        <ele>8.8</ele>
        <time>2021-11-29T21:08:19.629Z</time>
      </trkpt>
      <trkpt lat="46.56654" lon="-1.83004">
        <ele>10.6</ele>
        <time>2021-11-29T21:08:27.861Z</time>
      </trkpt>
      <trkpt lat="46.56662" lon="-1.82961">
        <ele>9.3</ele>
        <time>2021-11-29T21:08:30.741Z</time>
      </trkpt>
      <trkpt lat="46.56688" lon="-1.82914">
        <ele>10.1</ele>
        <time>2021-11-29T21:08:39.090Z</time>
      </trkpt>
      <trkpt lat="46.56725" lon="-1.82879">
        <ele>11.5</ele>
        <time>2021-11-29T21:08:49.277Z</time>
      </trkpt>
      <trkpt lat="46.56757" lon="-1.82843">
        <ele>8.6</ele>
        <time>2021-11-29T21:08:52.749Z</time>
      </trkpt>
      <trkpt lat="46.5679" lon="-1.82809">
        <ele>9.3</ele>
        <time>2021-11-29T21:09:00.599Z</time>
      </trkpt>
      <trkpt lat="46.56827" lon="-1.82792">
        <ele>8.4</ele>
        <time>2021-11-29T21:09:05.077Z</time>
      </trkpt>
      <trkpt lat="46.5684" lon="-1.82789">
        <ele>7.9</ele>
        <time>2021-11-29T21:09:06.411Z</time>
      </trkpt>
      <trkpt lat="46.56875" lon="-1.82785">
        <ele>7.6</ele>
        <time>2021-11-29T21:09:11.342Z</time>
      </trkpt>
      <trkpt lat="46.56926" lon="-1.828">
        <ele>8.4</ele>
        <time>2021-11-29T21:09:21.161Z</time>
      </trkpt>
      <trkpt lat="46.56942" lon="-1.828">
        <ele>9.3</ele>
        <time>2021-11-29T21:09:25.994Z</time>
      </trkpt>
      <trkpt lat="46.56988" lon="-1.82777">
        <ele>9.6</ele>
        <time>2021-11-29T21:09:34.462Z</time>
      </trkpt>
      <trkpt lat="46.5701" lon="-1.82764">
        <ele>9.1</ele>
        <time>2021-11-29T21:09:37.287Z</time>
      </trkpt>
      <trkpt lat="46.57027" lon="-1.82746">
        <ele>8.2</ele>
        <time>2021-11-29T21:09:39.312Z</time>
      </trkpt>
      <trkpt lat="46.57057" lon="-1.82761">
        <ele>7.5</ele>
        <time>2021-11-29T21:09:42.959Z</time>
      </trkpt>
      <trkpt lat="46.5708" lon="-1.82751">
        <ele>7.9</ele>
        <time>2021-11-29T21:09:47.731Z</time>
      </trkpt>
      <trkpt lat="46.57104" lon="-1.82731">
        <ele>7.6</ele>
        <time>2021-11-29T21:09:51.359Z</time>
      </trkpt>
      <trkpt lat="46.57131" lon="-1.82719">
        <ele>6.3</ele>
        <time>2021-11-29T21:09:53.930Z</time>
      </trkpt>
      <trkpt lat="46.57151" lon="-1.82712">
        <ele>6.7</ele>
        <time>2021-11-29T21:09:58.122Z</time>
      </trkpt>
      <trkpt lat="46.57173" lon="-1.82712">
        <ele>7.7</ele>
        <time>2021-11-29T21:10:04.284Z</time>
      </trkpt>
      <trkpt lat="46.57134" lon="-1.82772">
        <ele>7.6</ele>
        <time>2021-11-29T21:10:13.471Z</time>
      </trkpt>
      <trkpt lat="46.57111" lon="-1.82824">
        <ele>8.4</ele>
        <time>2021-11-29T21:10:21.794Z</time>
      </trkpt>
      <trkpt lat="46.57097" lon="-1.82869">
        <ele>10.4</ele>
        <time>2021-11-29T21:10:32.222Z</time>
      </trkpt>
      <trkpt lat="46.57094" lon="-1.82916">
        <ele>8.5</ele>
        <time>2021-11-29T21:10:34.919Z</time>
      </trkpt>
      <trkpt lat="46.57101" lon="-1.82963">
        <ele>9.6</ele>
        <time>2021-11-29T21:10:42.767Z</time>
      </trkpt>
      <trkpt lat="46.57128" lon="-1.82959">
        <ele>10.3</ele>
        <time>2021-11-29T21:10:48.539Z</time>
      </trkpt>
      <trkpt lat="46.57167" lon="-1.82957">
        <ele>8.4</ele>
        <time>2021-11-29T21:10:52.146Z</time>
      </trkpt>
      <trkpt lat="46.57194" lon="-1.82974">
        <ele>7</ele>
        <time>2021-11-29T21:10:54.774Z</time>
      </trkpt>
      <trkpt lat="46.5721" lon="-1.83017">
        <ele>7.3</ele>
        <time>2021-11-29T21:11:00.798Z</time>
      </trkpt>
      <trkpt lat="46.57213" lon="-1.83051">
        <ele>7.7</ele>
        <time>2021-11-29T21:11:05.418Z</time>
      </trkpt>
      <trkpt lat="46.57225" lon="-1.83107">
        <ele>7.3</ele>
        <time>2021-11-29T21:11:10.877Z</time>
      </trkpt>
      <trkpt lat="46.57252" lon="-1.83137">
        <ele>8.2</ele>
        <time>2021-11-29T21:11:18.194Z</time>
      </trkpt>
      <trkpt lat="46.57293" lon="-1.83176">
        <ele>11.8</ele>
        <time>2021-11-29T21:11:34.860Z</time>
      </trkpt>
      <trkpt lat="46.57321" lon="-1.83201">
        <ele>9.6</ele>
        <time>2021-11-29T21:11:37.442Z</time>
      </trkpt>
      <trkpt lat="46.57347" lon="-1.83223">
        <ele>10.5</ele>
        <time>2021-11-29T21:11:44.291Z</time>
      </trkpt>
      <trkpt lat="46.5738" lon="-1.83227">
        <ele>9.4</ele>
        <time>2021-11-29T21:11:47.665Z</time>
      </trkpt>
      <trkpt lat="46.57415" lon="-1.83236">
        <ele>9</ele>
        <time>2021-11-29T21:11:52.470Z</time>
      </trkpt>
      <trkpt lat="46.57442" lon="-1.83259">
        <ele>8.9</ele>
        <time>2021-11-29T21:11:57.338Z</time>
      </trkpt>
      <trkpt lat="46.57461" lon="-1.83274">
        <ele>9.1</ele>
        <time>2021-11-29T21:12:01.256Z</time>
      </trkpt>
      <trkpt lat="46.57492" lon="-1.8327">
        <ele>9.1</ele>
        <time>2021-11-29T21:12:06.376Z</time>
      </trkpt>
      <trkpt lat="46.57522" lon="-1.83268">
        <ele>8.8</ele>
        <time>2021-11-29T21:12:10.383Z</time>
      </trkpt>
      <trkpt lat="46.57554" lon="-1.83268">
        <ele>8.4</ele>
        <time>2021-11-29T21:12:14.655Z</time>
      </trkpt>
      <trkpt lat="46.57586" lon="-1.83296">
        <ele>11.7</ele>
        <time>2021-11-29T21:12:29.031Z</time>
      </trkpt>
      <trkpt lat="46.57566" lon="-1.83371">
        <ele>9</ele>
        <time>2021-11-29T21:12:34.032Z</time>
      </trkpt>
      <trkpt lat="46.57535" lon="-1.83502">
        <ele>8.1</ele>
        <time>2021-11-29T21:12:47.064Z</time>
      </trkpt>
      <trkpt lat="46.57552" lon="-1.83508">
        <ele>8.6</ele>
        <time>2021-11-29T21:12:51.071Z</time>
      </trkpt>
      <trkpt lat="46.57581" lon="-1.83478">
        <ele>11.2</ele>
        <time>2021-11-29T21:13:03.022Z</time>
      </trkpt>
      <trkpt lat="46.57607" lon="-1.83446">
        <ele>16</ele>
        <time>2021-11-29T21:13:24.919Z</time>
      </trkpt>
      <trkpt lat="46.57632" lon="-1.83427">
        <ele>16.4</ele>
        <time>2021-11-29T21:13:30.278Z</time>
      </trkpt>
      <trkpt lat="46.57668" lon="-1.83416">
        <ele>12.9</ele>
        <time>2021-11-29T21:13:33.339Z</time>
      </trkpt>
      <trkpt lat="46.57697" lon="-1.83386">
        <ele>12.6</ele>
        <time>2021-11-29T21:13:38.349Z</time>
      </trkpt>
      <trkpt lat="46.57724" lon="-1.83347">
        <ele>11.4</ele>
        <time>2021-11-29T21:13:42.294Z</time>
      </trkpt>
      <trkpt lat="46.5775" lon="-1.83287">
        <ele>9.7</ele>
        <time>2021-11-29T21:13:47.328Z</time>
      </trkpt>
      <trkpt lat="46.57762" lon="-1.83238">
        <ele>10.4</ele>
        <time>2021-11-29T21:13:54.512Z</time>
      </trkpt>
      <trkpt lat="46.57784" lon="-1.83197">
        <ele>9</ele>
        <time>2021-11-29T21:13:58.009Z</time>
      </trkpt>
      <trkpt lat="46.57808" lon="-1.83161">
        <ele>8.9</ele>
        <time>2021-11-29T21:14:03.431Z</time>
      </trkpt>
      <trkpt lat="46.57837" lon="-1.83116">
        <ele>8.7</ele>
        <time>2021-11-29T21:14:09.989Z</time>
      </trkpt>
      <trkpt lat="46.57846" lon="-1.83143">
        <ele>8</ele>
        <time>2021-11-29T21:14:12.182Z</time>
      </trkpt>
      <trkpt lat="46.57881" lon="-1.83191">
        <ele>8</ele>
        <time>2021-11-29T21:14:20.077Z</time>
      </trkpt>
      <trkpt lat="46.57901" lon="-1.83214">
        <ele>9.3</ele>
        <time>2021-11-29T21:14:27.385Z</time>
      </trkpt>
      <trkpt lat="46.5792" lon="-1.83255">
        <ele>9.1</ele>
        <time>2021-11-29T21:14:32.511Z</time>
      </trkpt>
      <trkpt lat="46.57949" lon="-1.83358">
        <ele>10.2</ele>
        <time>2021-11-29T21:14:47.029Z</time>
      </trkpt>
      <trkpt lat="46.57964" lon="-1.83384">
        <ele>11.9</ele>
        <time>2021-11-29T21:14:54.867Z</time>
      </trkpt>
      <trkpt lat="46.5798" lon="-1.83416">
        <ele>12.1</ele>
        <time>2021-11-29T21:14:59.709Z</time>
      </trkpt>
      <trkpt lat="46.58013" lon="-1.83465">
        <ele>12.2</ele>
        <time>2021-11-29T21:15:07.571Z</time>
      </trkpt>
      <trkpt lat="46.58027" lon="-1.83545">
        <ele>10.6</ele>
        <time>2021-11-29T21:15:13.755Z</time>
      </trkpt>
      <trkpt lat="46.58061" lon="-1.83658">
        <ele>11.3</ele>
        <time>2021-11-29T21:15:28.911Z</time>
      </trkpt>
      <trkpt lat="46.58078" lon="-1.83697">
        <ele>10.6</ele>
        <time>2021-11-29T21:15:32.535Z</time>
      </trkpt>
      <trkpt lat="46.58126" lon="-1.83731">
        <ele>7.7</ele>
        <time>2021-11-29T21:15:37.192Z</time>
      </trkpt>
      <trkpt lat="46.58148" lon="-1.83716">
        <ele>6.9</ele>
        <time>2021-11-29T21:15:39.737Z</time>
      </trkpt>
      <trkpt lat="46.58232" lon="-1.83729">
        <ele>6.1</ele>
        <time>2021-11-29T21:15:51.316Z</time>
      </trkpt>
      <trkpt lat="46.5824" lon="-1.83738">
        <ele>5.5</ele>
        <time>2021-11-29T21:15:52.061Z</time>
      </trkpt>
      <trkpt lat="46.58246" lon="-1.83757">
        <ele>5.2</ele>
        <time>2021-11-29T21:15:53.789Z</time>
      </trkpt>
      <trkpt lat="46.58255" lon="-1.83781">
        <ele>5</ele>
        <time>2021-11-29T21:15:56.278Z</time>
      </trkpt>
      <trkpt lat="46.58268" lon="-1.83791">
        <ele>5.3</ele>
        <time>2021-11-29T21:15:59.328Z</time>
      </trkpt>
      <trkpt lat="46.58286" lon="-1.83787">
        <ele>5.2</ele>
        <time>2021-11-29T21:16:02.046Z</time>
      </trkpt>
      <trkpt lat="46.58312" lon="-1.83761">
        <ele>5.2</ele>
        <time>2021-11-29T21:16:07.283Z</time>
      </trkpt>
      <trkpt lat="46.58331" lon="-1.83761">
        <ele>5.9</ele>
        <time>2021-11-29T21:16:12.022Z</time>
      </trkpt>
      <trkpt lat="46.58364" lon="-1.83772">
        <ele>6.3</ele>
        <time>2021-11-29T21:16:18.162Z</time>
      </trkpt>
      <trkpt lat="46.58374" lon="-1.838">
        <ele>5.1</ele>
        <time>2021-11-29T21:16:20.012Z</time>
      </trkpt>
      <trkpt lat="46.58429" lon="-1.83886">
        <ele>5.5</ele>
        <time>2021-11-29T21:16:33.857Z</time>
      </trkpt>
      <trkpt lat="46.58434" lon="-1.83905">
        <ele>5.2</ele>
        <time>2021-11-29T21:16:35.585Z</time>
      </trkpt>
      <trkpt lat="46.58457" lon="-1.83922">
        <ele>5.2</ele>
        <time>2021-11-29T21:16:39.706Z</time>
      </trkpt>
      <trkpt lat="46.58488" lon="-1.83935">
        <ele>5.5</ele>
        <time>2021-11-29T21:16:45.501Z</time>
      </trkpt>
      <trkpt lat="46.58508" lon="-1.83948">
        <ele>5</ele>
        <time>2021-11-29T21:16:48.118Z</time>
      </trkpt>
      <trkpt lat="46.58554" lon="-1.83967">
        <ele>5</ele>
        <time>2021-11-29T21:16:55.961Z</time>
      </trkpt>
      <trkpt lat="46.58575" lon="-1.8395">
        <ele>4.3</ele>
        <time>2021-11-29T21:16:58.526Z</time>
      </trkpt>
      <trkpt lat="46.58629" lon="-1.83927">
        <ele>4.3</ele>
        <time>2021-11-29T21:17:07.869Z</time>
      </trkpt>
      <trkpt lat="46.5862" lon="-1.84036">
        <ele>4.7</ele>
        <time>2021-11-29T21:17:20.834Z</time>
      </trkpt>
      <trkpt lat="46.58634" lon="-1.84172">
        <ele>5</ele>
        <time>2021-11-29T21:17:36.882Z</time>
      </trkpt>
      <trkpt lat="46.5866" lon="-1.84208">
        <ele>4.7</ele>
        <time>2021-11-29T21:17:41.796Z</time>
      </trkpt>
      <trkpt lat="46.58682" lon="-1.84236">
        <ele>4.7</ele>
        <time>2021-11-29T21:17:46.582Z</time>
      </trkpt>
      <trkpt lat="46.58713" lon="-1.84301">
        <ele>3.6</ele>
        <time>2021-11-29T21:17:53.105Z</time>
      </trkpt>
      <trkpt lat="46.58716" lon="-1.8437">
        <ele>3.6</ele>
        <time>2021-11-29T21:18:00.940Z</time>
      </trkpt>
      <trkpt lat="46.58706" lon="-1.84417">
        <ele>3.4</ele>
        <time>2021-11-29T21:18:06.019Z</time>
      </trkpt>
      <trkpt lat="46.58688" lon="-1.8446">
        <ele>5</ele>
        <time>2021-11-29T21:18:15.721Z</time>
      </trkpt>
      <trkpt lat="46.58678" lon="-1.8449">
        <ele>5.3</ele>
        <time>2021-11-29T21:18:20.010Z</time>
      </trkpt>
      <trkpt lat="46.58647" lon="-1.84514">
        <ele>4.9</ele>
        <time>2021-11-29T21:18:24.686Z</time>
      </trkpt>
      <trkpt lat="46.58612" lon="-1.84536">
        <ele>4.6</ele>
        <time>2021-11-29T21:18:29.990Z</time>
      </trkpt>
      <trkpt lat="46.58582" lon="-1.84561">
        <ele>4.9</ele>
        <time>2021-11-29T21:18:36.241Z</time>
      </trkpt>
      <trkpt lat="46.58555" lon="-1.84587">
        <ele>5.1</ele>
        <time>2021-11-29T21:18:41.888Z</time>
      </trkpt>
      <trkpt lat="46.58533" lon="-1.84607">
        <ele>5.9</ele>
        <time>2021-11-29T21:18:47.840Z</time>
      </trkpt>
      <trkpt lat="46.58521" lon="-1.84635">
        <ele>4.3</ele>
        <time>2021-11-29T21:18:49.741Z</time>
      </trkpt>
    </trkseg>
  </trk>
</gpx>